sensor_id;sensor_type;location;lat;lon;timestamp;P1;durP1;ratioP1;P2;durP2;ratioP2
59728;SDS011;45588;51.598;5.618;2024-02-21T00:00:10;43.28;;;16.33;;
59728;SDS011;45588;51.598;5.618;2024-02-21T00:02:36;32.78;;;14.23;;
59728;SDS011;45588;51.598;5.618;2024-02-21T00:05:02;36.97;;;15.80;;
59728;SDS011;45588;51.598;5.618;2024-02-21T00:07:27;34.17;;;13.38;;
59728;SDS011;45588;51.598;5.618;2024-02-21T00:09:52;29.42;;;12.50;;
59728;SDS011;45588;51.598;5.618;2024-02-21T00:12:18;41.80;;;12.68;;
59728;SDS011;45588;51.598;5.618;2024-02-21T00:14:43;35.30;;;12.93;;
59728;SDS011;45588;51.598;5.618;2024-02-21T00:17:08;35.42;;;14.88;;
59728;SDS011;45588;51.598;5.618;2024-02-21T00:19:34;38.00;;;13.43;;
59728;SDS011;45588;51.598;5.618;2024-02-21T00:21:59;34.33;;;12.68;;
59728;SDS011;45588;51.598;5.618;2024-02-21T00:24:24;35.00;;;12.55;;
59728;SDS011;45588;51.598;5.618;2024-02-21T00:26:49;28.85;;;11.52;;
59728;SDS011;45588;51.598;5.618;2024-02-21T00:29:14;34.45;;;12.82;;
59728;SDS011;45588;51.598;5.618;2024-02-21T00:31:40;29.97;;;11.83;;
59728;SDS011;45588;51.598;5.618;2024-02-21T00:34:05;33.67;;;12.67;;
59728;SDS011;45588;51.598;5.618;2024-02-21T00:36:30;35.65;;;11.05;;
59728;SDS011;45588;51.598;5.618;2024-02-21T00:38:55;43.25;;;13.10;;
59728;SDS011;45588;51.598;5.618;2024-02-21T00:41:21;34.75;;;12.23;;
59728;SDS011;45588;51.598;5.618;2024-02-21T00:43:46;35.95;;;10.38;;
59728;SDS011;45588;51.598;5.618;2024-02-21T00:46:13;31.08;;;12.07;;
59728;SDS011;45588;51.598;5.618;2024-02-21T00:48:38;39.97;;;11.43;;
59728;SDS011;45588;51.598;5.618;2024-02-21T00:51:03;36.23;;;11.57;;
59728;SDS011;45588;51.598;5.618;2024-02-21T00:53:29;35.25;;;12.48;;
59728;SDS011;45588;51.598;5.618;2024-02-21T00:55:54;35.70;;;11.18;;
59728;SDS011;45588;51.598;5.618;2024-02-21T00:58:21;26.95;;;10.45;;
59728;SDS011;45588;51.598;5.618;2024-02-21T01:00:46;28.90;;;12.20;;
59728;SDS011;45588;51.598;5.618;2024-02-21T01:03:11;38.73;;;12.17;;
59728;SDS011;45588;51.598;5.618;2024-02-21T01:05:36;29.40;;;11.53;;
59728;SDS011;45588;51.598;5.618;2024-02-21T01:08:01;38.00;;;12.43;;
59728;SDS011;45588;51.598;5.618;2024-02-21T01:10:27;44.00;;;11.48;;
59728;SDS011;45588;51.598;5.618;2024-02-21T01:12:52;40.73;;;11.43;;
59728;SDS011;45588;51.598;5.618;2024-02-21T01:15:17;35.30;;;11.35;;
59728;SDS011;45588;51.598;5.618;2024-02-21T01:17:42;30.20;;;11.27;;
59728;SDS011;45588;51.598;5.618;2024-02-21T01:20:07;23.37;;;11.13;;
59728;SDS011;45588;51.598;5.618;2024-02-21T01:22:33;29.05;;;11.55;;
59728;SDS011;45588;51.598;5.618;2024-02-21T01:24:58;26.90;;;9.95;;
59728;SDS011;45588;51.598;5.618;2024-02-21T01:27:23;38.20;;;12.03;;
59728;SDS011;45588;51.598;5.618;2024-02-21T01:29:48;28.07;;;10.70;;
59728;SDS011;45588;51.598;5.618;2024-02-21T01:32:14;30.13;;;9.77;;
59728;SDS011;45588;51.598;5.618;2024-02-21T01:34:40;26.42;;;11.20;;
59728;SDS011;45588;51.598;5.618;2024-02-21T01:37:05;29.73;;;10.05;;
59728;SDS011;45588;51.598;5.618;2024-02-21T01:39:32;29.67;;;10.65;;
59728;SDS011;45588;51.598;5.618;2024-02-21T01:41:57;27.35;;;9.93;;
59728;SDS011;45588;51.598;5.618;2024-02-21T01:44:23;32.08;;;10.75;;
59728;SDS011;45588;51.598;5.618;2024-02-21T01:46:48;24.07;;;10.67;;
59728;SDS011;45588;51.598;5.618;2024-02-21T01:49:13;32.35;;;10.32;;
59728;SDS011;45588;51.598;5.618;2024-02-21T01:51:39;39.90;;;9.95;;
59728;SDS011;45588;51.598;5.618;2024-02-21T01:54:04;32.03;;;9.77;;
59728;SDS011;45588;51.598;5.618;2024-02-21T01:56:30;27.95;;;10.00;;
59728;SDS011;45588;51.598;5.618;2024-02-21T01:58:55;30.02;;;9.55;;
59728;SDS011;45588;51.598;5.618;2024-02-21T02:01:21;29.27;;;10.40;;
59728;SDS011;45588;51.598;5.618;2024-02-21T02:03:46;24.83;;;9.32;;
59728;SDS011;45588;51.598;5.618;2024-02-21T02:06:11;22.70;;;9.48;;
59728;SDS011;45588;51.598;5.618;2024-02-21T02:08:37;23.65;;;8.90;;
59728;SDS011;45588;51.598;5.618;2024-02-21T02:11:02;32.05;;;9.68;;
59728;SDS011;45588;51.598;5.618;2024-02-21T02:13:28;27.02;;;8.70;;
59728;SDS011;45588;51.598;5.618;2024-02-21T02:15:53;33.03;;;12.32;;
59728;SDS011;45588;51.598;5.618;2024-02-21T02:18:19;30.52;;;9.55;;
59728;SDS011;45588;51.598;5.618;2024-02-21T02:20:45;36.28;;;9.73;;
59728;SDS011;45588;51.598;5.618;2024-02-21T02:23:21;29.80;;;8.50;;
59728;SDS011;45588;51.598;5.618;2024-02-21T02:25:46;24.25;;;9.40;;
59728;SDS011;45588;51.598;5.618;2024-02-21T02:28:14;25.65;;;8.13;;
59728;SDS011;45588;51.598;5.618;2024-02-21T02:30:39;19.63;;;8.45;;
59728;SDS011;45588;51.598;5.618;2024-02-21T02:33:05;28.45;;;7.40;;
59728;SDS011;45588;51.598;5.618;2024-02-21T02:35:31;25.58;;;8.70;;
59728;SDS011;45588;51.598;5.618;2024-02-21T02:37:56;25.40;;;7.97;;
59728;SDS011;45588;51.598;5.618;2024-02-21T02:40:21;26.65;;;8.80;;
59728;SDS011;45588;51.598;5.618;2024-02-21T02:42:46;26.33;;;7.93;;
59728;SDS011;45588;51.598;5.618;2024-02-21T02:45:13;19.65;;;6.60;;
59728;SDS011;45588;51.598;5.618;2024-02-21T02:47:39;22.52;;;8.10;;
59728;SDS011;45588;51.598;5.618;2024-02-21T02:50:05;22.15;;;7.78;;
59728;SDS011;45588;51.598;5.618;2024-02-21T02:52:31;20.30;;;9.60;;
59728;SDS011;45588;51.598;5.618;2024-02-21T02:54:56;23.88;;;8.48;;
59728;SDS011;45588;51.598;5.618;2024-02-21T02:57:21;24.90;;;7.40;;
59728;SDS011;45588;51.598;5.618;2024-02-21T02:59:47;27.77;;;8.73;;
59728;SDS011;45588;51.598;5.618;2024-02-21T03:02:13;19.17;;;7.20;;
59728;SDS011;45588;51.598;5.618;2024-02-21T03:04:39;22.40;;;7.37;;
59728;SDS011;45588;51.598;5.618;2024-02-21T03:07:04;21.25;;;8.07;;
59728;SDS011;45588;51.598;5.618;2024-02-21T03:09:30;32.95;;;8.45;;
59728;SDS011;45588;51.598;5.618;2024-02-21T03:11:55;22.57;;;7.43;;
59728;SDS011;45588;51.598;5.618;2024-02-21T03:14:22;28.25;;;7.75;;
59728;SDS011;45588;51.598;5.618;2024-02-21T03:16:47;22.33;;;8.03;;
59728;SDS011;45588;51.598;5.618;2024-02-21T03:19:12;19.57;;;7.37;;
59728;SDS011;45588;51.598;5.618;2024-02-21T03:21:37;22.63;;;6.77;;
59728;SDS011;45588;51.598;5.618;2024-02-21T03:24:02;23.70;;;7.90;;
59728;SDS011;45588;51.598;5.618;2024-02-21T03:26:28;18.17;;;7.30;;
59728;SDS011;45588;51.598;5.618;2024-02-21T03:28:53;18.43;;;6.67;;
59728;SDS011;45588;51.598;5.618;2024-02-21T03:31:18;32.60;;;13.67;;
59728;SDS011;45588;51.598;5.618;2024-02-21T03:33:43;19.45;;;7.22;;
59728;SDS011;45588;51.598;5.618;2024-02-21T03:36:15;18.70;;;6.38;;
59728;SDS011;45588;51.598;5.618;2024-02-21T03:38:40;18.75;;;6.93;;
59728;SDS011;45588;51.598;5.618;2024-02-21T03:41:05;20.02;;;6.82;;
59728;SDS011;45588;51.598;5.618;2024-02-21T03:43:31;19.88;;;6.45;;
59728;SDS011;45588;51.598;5.618;2024-02-21T03:45:56;20.42;;;7.70;;
59728;SDS011;45588;51.598;5.618;2024-02-21T03:48:21;13.80;;;6.07;;
59728;SDS011;45588;51.598;5.618;2024-02-21T03:50:46;26.67;;;6.78;;
59728;SDS011;45588;51.598;5.618;2024-02-21T03:53:11;17.43;;;6.30;;
59728;SDS011;45588;51.598;5.618;2024-02-21T03:55:37;22.67;;;6.63;;
59728;SDS011;45588;51.598;5.618;2024-02-21T03:58:02;17.00;;;6.57;;
59728;SDS011;45588;51.598;5.618;2024-02-21T04:00:27;22.33;;;6.93;;
59728;SDS011;45588;51.598;5.618;2024-02-21T04:02:53;20.43;;;6.93;;
59728;SDS011;45588;51.598;5.618;2024-02-21T04:05:18;17.88;;;7.88;;
59728;SDS011;45588;51.598;5.618;2024-02-21T04:07:43;29.02;;;7.28;;
59728;SDS011;45588;51.598;5.618;2024-02-21T04:10:08;23.98;;;7.97;;
59728;SDS011;45588;51.598;5.618;2024-02-21T04:12:33;21.80;;;6.80;;
59728;SDS011;45588;51.598;5.618;2024-02-21T04:14:59;23.35;;;7.88;;
59728;SDS011;45588;51.598;5.618;2024-02-21T04:17:24;18.53;;;7.27;;
59728;SDS011;45588;51.598;5.618;2024-02-21T04:19:49;19.20;;;9.07;;
59728;SDS011;45588;51.598;5.618;2024-02-21T04:22:15;22.55;;;8.23;;
59728;SDS011;45588;51.598;5.618;2024-02-21T04:24:40;25.20;;;8.87;;
59728;SDS011;45588;51.598;5.618;2024-02-21T04:27:05;24.20;;;8.27;;
59728;SDS011;45588;51.598;5.618;2024-02-21T04:29:30;17.77;;;7.18;;
59728;SDS011;45588;51.598;5.618;2024-02-21T04:31:55;17.55;;;8.00;;
59728;SDS011;45588;51.598;5.618;2024-02-21T04:34:21;18.07;;;8.30;;
59728;SDS011;45588;51.598;5.618;2024-02-21T04:36:46;23.52;;;9.35;;
59728;SDS011;45588;51.598;5.618;2024-02-21T04:39:11;18.65;;;7.55;;
59728;SDS011;45588;51.598;5.618;2024-02-21T04:41:36;33.67;;;14.27;;
59728;SDS011;45588;51.598;5.618;2024-02-21T04:44:02;18.15;;;6.90;;
59728;SDS011;45588;51.598;5.618;2024-02-21T04:46:28;19.40;;;7.32;;
59728;SDS011;45588;51.598;5.618;2024-02-21T04:48:54;29.52;;;8.63;;
59728;SDS011;45588;51.598;5.618;2024-02-21T04:51:19;23.00;;;7.75;;
59728;SDS011;45588;51.598;5.618;2024-02-21T04:53:44;21.30;;;7.95;;
59728;SDS011;45588;51.598;5.618;2024-02-21T04:56:10;28.00;;;8.93;;
59728;SDS011;45588;51.598;5.618;2024-02-21T04:58:37;17.30;;;8.18;;
59728;SDS011;45588;51.598;5.618;2024-02-21T05:01:02;22.38;;;9.57;;
59728;SDS011;45588;51.598;5.618;2024-02-21T05:03:27;27.02;;;10.13;;
59728;SDS011;45588;51.598;5.618;2024-02-21T05:05:53;30.23;;;10.27;;
59728;SDS011;45588;51.598;5.618;2024-02-21T05:08:18;27.08;;;9.27;;
59728;SDS011;45588;51.598;5.618;2024-02-21T05:10:43;19.83;;;8.07;;
59728;SDS011;45588;51.598;5.618;2024-02-21T05:13:08;27.70;;;9.98;;
59728;SDS011;45588;51.598;5.618;2024-02-21T05:15:34;31.52;;;9.15;;
59728;SDS011;45588;51.598;5.618;2024-02-21T05:17:59;27.13;;;10.50;;
59728;SDS011;45588;51.598;5.618;2024-02-21T05:20:24;24.37;;;10.23;;
59728;SDS011;45588;51.598;5.618;2024-02-21T05:22:49;35.87;;;10.03;;
59728;SDS011;45588;51.598;5.618;2024-02-21T05:25:14;24.10;;;10.20;;
59728;SDS011;45588;51.598;5.618;2024-02-21T05:27:39;25.77;;;9.23;;
59728;SDS011;45588;51.598;5.618;2024-02-21T05:30:05;21.23;;;8.13;;
59728;SDS011;45588;51.598;5.618;2024-02-21T05:32:31;23.63;;;8.57;;
59728;SDS011;45588;51.598;5.618;2024-02-21T05:34:56;26.23;;;9.10;;
59728;SDS011;45588;51.598;5.618;2024-02-21T05:37:23;28.00;;;9.98;;
59728;SDS011;45588;51.598;5.618;2024-02-21T05:39:48;24.57;;;9.77;;
59728;SDS011;45588;51.598;5.618;2024-02-21T05:42:13;25.40;;;9.67;;
59728;SDS011;45588;51.598;5.618;2024-02-21T05:44:38;23.75;;;9.02;;
59728;SDS011;45588;51.598;5.618;2024-02-21T05:47:03;32.97;;;8.77;;
59728;SDS011;45588;51.598;5.618;2024-02-21T05:49:29;26.48;;;8.75;;
59728;SDS011;45588;51.598;5.618;2024-02-21T05:51:54;21.87;;;8.97;;
59728;SDS011;45588;51.598;5.618;2024-02-21T05:54:19;27.30;;;10.03;;
59728;SDS011;45588;51.598;5.618;2024-02-21T05:56:47;28.07;;;9.93;;
59728;SDS011;45588;51.598;5.618;2024-02-21T05:59:12;33.10;;;10.65;;
59728;SDS011;45588;51.598;5.618;2024-02-21T06:01:38;28.05;;;10.20;;
59728;SDS011;45588;51.598;5.618;2024-02-21T06:04:03;22.13;;;9.73;;
59728;SDS011;45588;51.598;5.618;2024-02-21T06:06:29;31.52;;;9.07;;
59728;SDS011;45588;51.598;5.618;2024-02-21T06:08:54;23.67;;;8.80;;
59728;SDS011;45588;51.598;5.618;2024-02-21T06:11:20;24.38;;;9.35;;
59728;SDS011;45588;51.598;5.618;2024-02-21T06:13:45;22.58;;;9.48;;
59728;SDS011;45588;51.598;5.618;2024-02-21T06:16:10;23.93;;;9.53;;
59728;SDS011;45588;51.598;5.618;2024-02-21T06:18:36;27.65;;;9.98;;
59728;SDS011;45588;51.598;5.618;2024-02-21T06:21:02;25.15;;;8.60;;
59728;SDS011;45588;51.598;5.618;2024-02-21T06:23:27;25.30;;;9.07;;
59728;SDS011;45588;51.598;5.618;2024-02-21T06:25:52;23.83;;;8.80;;
59728;SDS011;45588;51.598;5.618;2024-02-21T06:28:18;21.97;;;9.07;;
59728;SDS011;45588;51.598;5.618;2024-02-21T06:30:43;30.60;;;10.47;;
59728;SDS011;45588;51.598;5.618;2024-02-21T06:33:08;31.80;;;9.87;;
59728;SDS011;45588;51.598;5.618;2024-02-21T06:35:33;24.60;;;8.97;;
59728;SDS011;45588;51.598;5.618;2024-02-21T06:37:58;27.45;;;9.98;;
59728;SDS011;45588;51.598;5.618;2024-02-21T06:40:24;28.08;;;9.25;;
59728;SDS011;45588;51.598;5.618;2024-02-21T06:42:50;20.90;;;8.93;;
59728;SDS011;45588;51.598;5.618;2024-02-21T06:45:15;35.63;;;10.68;;
59728;SDS011;45588;51.598;5.618;2024-02-21T06:47:40;26.80;;;9.40;;
59728;SDS011;45588;51.598;5.618;2024-02-21T06:50:06;31.45;;;9.45;;
59728;SDS011;45588;51.598;5.618;2024-02-21T06:52:31;35.42;;;12.82;;
59728;SDS011;45588;51.598;5.618;2024-02-21T06:54:56;29.47;;;11.07;;
59728;SDS011;45588;51.598;5.618;2024-02-21T06:57:21;34.97;;;10.98;;
59728;SDS011;45588;51.598;5.618;2024-02-21T06:59:46;25.10;;;10.68;;
59728;SDS011;45588;51.598;5.618;2024-02-21T07:02:12;33.77;;;10.40;;
59728;SDS011;45588;51.598;5.618;2024-02-21T07:04:37;25.02;;;11.32;;
59728;SDS011;45588;51.598;5.618;2024-02-21T07:07:02;34.63;;;11.35;;
59728;SDS011;45588;51.598;5.618;2024-02-21T07:09:27;30.40;;;12.43;;
59728;SDS011;45588;51.598;5.618;2024-02-21T07:11:56;33.40;;;12.13;;
59728;SDS011;45588;51.598;5.618;2024-02-21T07:14:21;26.73;;;10.73;;
59728;SDS011;45588;51.598;5.618;2024-02-21T07:16:46;24.43;;;9.37;;
59728;SDS011;45588;51.598;5.618;2024-02-21T07:19:12;21.80;;;9.70;;
59728;SDS011;45588;51.598;5.618;2024-02-21T07:21:37;23.33;;;9.70;;
59728;SDS011;45588;51.598;5.618;2024-02-21T07:24:03;30.65;;;10.75;;
59728;SDS011;45588;51.598;5.618;2024-02-21T07:26:28;35.72;;;10.43;;
59728;SDS011;45588;51.598;5.618;2024-02-21T07:28:53;26.53;;;10.07;;
59728;SDS011;45588;51.598;5.618;2024-02-21T07:31:18;26.52;;;10.75;;
59728;SDS011;45588;51.598;5.618;2024-02-21T07:33:44;30.83;;;11.68;;
59728;SDS011;45588;51.598;5.618;2024-02-21T07:36:10;30.15;;;10.50;;
59728;SDS011;45588;51.598;5.618;2024-02-21T07:38:36;35.58;;;10.77;;
59728;SDS011;45588;51.598;5.618;2024-02-21T07:41:01;47.13;;;22.95;;
59728;SDS011;45588;51.598;5.618;2024-02-21T07:43:26;28.58;;;10.45;;
59728;SDS011;45588;51.598;5.618;2024-02-21T07:45:54;35.08;;;13.35;;
59728;SDS011;45588;51.598;5.618;2024-02-21T07:48:19;25.65;;;10.73;;
59728;SDS011;45588;51.598;5.618;2024-02-21T07:50:44;30.00;;;11.73;;
59728;SDS011;45588;51.598;5.618;2024-02-21T07:53:09;27.03;;;10.43;;
59728;SDS011;45588;51.598;5.618;2024-02-21T07:55:35;36.83;;;11.80;;
59728;SDS011;45588;51.598;5.618;2024-02-21T07:58:00;31.40;;;11.17;;
59728;SDS011;45588;51.598;5.618;2024-02-21T08:00:25;31.83;;;10.57;;
59728;SDS011;45588;51.598;5.618;2024-02-21T08:02:50;21.90;;;9.95;;
59728;SDS011;45588;51.598;5.618;2024-02-21T08:05:15;21.67;;;9.52;;
59728;SDS011;45588;51.598;5.618;2024-02-21T08:07:41;28.73;;;9.73;;
59728;SDS011;45588;51.598;5.618;2024-02-21T08:10:06;24.30;;;9.73;;
59728;SDS011;45588;51.598;5.618;2024-02-21T08:12:34;25.48;;;9.25;;
59728;SDS011;45588;51.598;5.618;2024-02-21T08:15:00;24.13;;;9.63;;
59728;SDS011;45588;51.598;5.618;2024-02-21T08:17:25;24.95;;;10.80;;
59728;SDS011;45588;51.598;5.618;2024-02-21T08:19:50;28.70;;;9.90;;
59728;SDS011;45588;51.598;5.618;2024-02-21T08:22:16;23.38;;;10.52;;
59728;SDS011;45588;51.598;5.618;2024-02-21T08:24:41;20.17;;;8.73;;
59728;SDS011;45588;51.598;5.618;2024-02-21T08:27:06;19.35;;;9.02;;
59728;SDS011;45588;51.598;5.618;2024-02-21T08:29:32;24.92;;;9.60;;
59728;SDS011;45588;51.598;5.618;2024-02-21T08:31:57;24.25;;;9.57;;
59728;SDS011;45588;51.598;5.618;2024-02-21T08:34:22;21.50;;;8.47;;
59728;SDS011;45588;51.598;5.618;2024-02-21T08:36:47;20.30;;;8.67;;
59728;SDS011;45588;51.598;5.618;2024-02-21T08:39:12;20.30;;;7.83;;
59728;SDS011;45588;51.598;5.618;2024-02-21T08:41:41;20.85;;;8.05;;
59728;SDS011;45588;51.598;5.618;2024-02-21T08:44:07;17.58;;;8.43;;
59728;SDS011;45588;51.598;5.618;2024-02-21T08:46:32;19.10;;;9.02;;
59728;SDS011;45588;51.598;5.618;2024-02-21T08:48:57;17.97;;;7.67;;
59728;SDS011;45588;51.598;5.618;2024-02-21T08:51:22;20.40;;;8.10;;
59728;SDS011;45588;51.598;5.618;2024-02-21T08:53:48;19.63;;;8.07;;
59728;SDS011;45588;51.598;5.618;2024-02-21T08:56:13;17.48;;;7.60;;
59728;SDS011;45588;51.598;5.618;2024-02-21T08:58:39;15.80;;;6.47;;
59728;SDS011;45588;51.598;5.618;2024-02-21T09:01:05;18.33;;;7.97;;
59728;SDS011;45588;51.598;5.618;2024-02-21T09:03:31;26.73;;;9.98;;
59728;SDS011;45588;51.598;5.618;2024-02-21T09:05:56;14.60;;;8.02;;
59728;SDS011;45588;51.598;5.618;2024-02-21T09:08:21;20.10;;;8.07;;
59728;SDS011;45588;51.598;5.618;2024-02-21T09:10:47;16.73;;;8.75;;
59728;SDS011;45588;51.598;5.618;2024-02-21T09:13:12;21.30;;;13.90;;
59728;SDS011;45588;51.598;5.618;2024-02-21T09:15:37;17.47;;;7.20;;
59728;SDS011;45588;51.598;5.618;2024-02-21T09:18:02;15.47;;;7.00;;
59728;SDS011;45588;51.598;5.618;2024-02-21T09:20:28;18.23;;;7.65;;
59728;SDS011;45588;51.598;5.618;2024-02-21T09:22:54;16.77;;;6.63;;
59728;SDS011;45588;51.598;5.618;2024-02-21T09:25:19;12.82;;;6.07;;
59728;SDS011;45588;51.598;5.618;2024-02-21T09:27:44;12.03;;;7.13;;
59728;SDS011;45588;51.598;5.618;2024-02-21T09:30:10;12.30;;;6.28;;
59728;SDS011;45588;51.598;5.618;2024-02-21T09:32:35;13.15;;;6.13;;
59728;SDS011;45588;51.598;5.618;2024-02-21T09:35:01;18.65;;;6.63;;
59728;SDS011;45588;51.598;5.618;2024-02-21T09:37:26;11.77;;;7.18;;
59728;SDS011;45588;51.598;5.618;2024-02-21T09:39:51;13.75;;;6.85;;
59728;SDS011;45588;51.598;5.618;2024-02-21T09:42:19;14.73;;;6.72;;
59728;SDS011;45588;51.598;5.618;2024-02-21T09:44:44;12.82;;;7.20;;
59728;SDS011;45588;51.598;5.618;2024-02-21T09:47:12;15.25;;;7.47;;
59728;SDS011;45588;51.598;5.618;2024-02-21T09:49:42;20.50;;;7.30;;
59728;SDS011;45588;51.598;5.618;2024-02-21T09:52:08;15.10;;;7.38;;
59728;SDS011;45588;51.598;5.618;2024-02-21T09:54:34;15.68;;;8.15;;
59728;SDS011;45588;51.598;5.618;2024-02-21T09:57:00;17.85;;;8.27;;
59728;SDS011;45588;51.598;5.618;2024-02-21T09:59:26;15.73;;;8.02;;
59728;SDS011;45588;51.598;5.618;2024-02-21T10:01:52;14.55;;;8.15;;
59728;SDS011;45588;51.598;5.618;2024-02-21T10:04:17;16.27;;;8.63;;
59728;SDS011;45588;51.598;5.618;2024-02-21T10:06:44;16.55;;;7.57;;
59728;SDS011;45588;51.598;5.618;2024-02-21T10:09:09;17.27;;;8.07;;
59728;SDS011;45588;51.598;5.618;2024-02-21T10:11:44;15.18;;;8.20;;
59728;SDS011;45588;51.598;5.618;2024-02-21T10:14:09;18.53;;;9.60;;
59728;SDS011;45588;51.598;5.618;2024-02-21T10:16:35;19.85;;;8.93;;
59728;SDS011;45588;51.598;5.618;2024-02-21T10:19:00;15.50;;;8.75;;
59728;SDS011;45588;51.598;5.618;2024-02-21T10:21:25;26.05;;;8.27;;
59728;SDS011;45588;51.598;5.618;2024-02-21T10:23:50;19.65;;;8.85;;
59728;SDS011;45588;51.598;5.618;2024-02-21T10:26:17;18.17;;;9.23;;
59728;SDS011;45588;51.598;5.618;2024-02-21T10:28:42;20.83;;;9.30;;
59728;SDS011;45588;51.598;5.618;2024-02-21T10:31:10;19.33;;;7.90;;
59728;SDS011;45588;51.598;5.618;2024-02-21T10:33:35;20.67;;;8.35;;
59728;SDS011;45588;51.598;5.618;2024-02-21T10:36:07;23.33;;;8.77;;
59728;SDS011;45588;51.598;5.618;2024-02-21T10:38:34;16.58;;;7.50;;
59728;SDS011;45588;51.598;5.618;2024-02-21T10:40:59;19.15;;;8.38;;
59728;SDS011;45588;51.598;5.618;2024-02-21T10:43:24;20.08;;;7.82;;
59728;SDS011;45588;51.598;5.618;2024-02-21T10:45:50;16.02;;;7.85;;
59728;SDS011;45588;51.598;5.618;2024-02-21T10:48:18;21.85;;;7.82;;
59728;SDS011;45588;51.598;5.618;2024-02-21T10:53:57;15.13;;;6.85;;
59728;SDS011;45588;51.598;5.618;2024-02-21T10:56:15;14.70;;;5.95;;
59728;SDS011;45588;51.598;5.618;2024-02-21T10:58:41;16.08;;;7.05;;
59728;SDS011;45588;51.598;5.618;2024-02-21T11:01:07;16.85;;;7.40;;
59728;SDS011;45588;51.598;5.618;2024-02-21T11:03:32;18.40;;;8.10;;
59728;SDS011;45588;51.598;5.618;2024-02-21T11:05:58;16.73;;;6.75;;
59728;SDS011;45588;51.598;5.618;2024-02-21T11:08:23;14.68;;;6.15;;
59728;SDS011;45588;51.598;5.618;2024-02-21T11:10:50;18.70;;;7.10;;
59728;SDS011;45588;51.598;5.618;2024-02-21T11:13:15;15.38;;;6.97;;
59728;SDS011;45588;51.598;5.618;2024-02-21T11:15:43;16.70;;;6.00;;
59728;SDS011;45588;51.598;5.618;2024-02-21T11:18:08;16.00;;;6.50;;
59728;SDS011;45588;51.598;5.618;2024-02-21T11:20:37;12.13;;;6.03;;
59728;SDS011;45588;51.598;5.618;2024-02-21T11:23:02;16.58;;;6.60;;
59728;SDS011;45588;51.598;5.618;2024-02-21T11:25:28;10.75;;;5.82;;
59728;SDS011;45588;51.598;5.618;2024-02-21T11:28:00;19.52;;;6.40;;
59728;SDS011;45588;51.598;5.618;2024-02-21T11:30:26;16.17;;;6.22;;
59728;SDS011;45588;51.598;5.618;2024-02-21T11:32:58;11.43;;;5.28;;
59728;SDS011;45588;51.598;5.618;2024-02-21T11:35:24;16.27;;;5.80;;
59728;SDS011;45588;51.598;5.618;2024-02-21T11:37:49;19.80;;;9.98;;
59728;SDS011;45588;51.598;5.618;2024-02-21T11:40:14;18.08;;;6.05;;
59728;SDS011;45588;51.598;5.618;2024-02-21T11:42:40;14.82;;;5.65;;
59728;SDS011;45588;51.598;5.618;2024-02-21T11:45:06;14.73;;;6.60;;
59728;SDS011;45588;51.598;5.618;2024-02-21T11:47:31;14.85;;;5.18;;
59728;SDS011;45588;51.598;5.618;2024-02-21T11:49:56;12.95;;;5.75;;
59728;SDS011;45588;51.598;5.618;2024-02-21T11:52:22;12.50;;;6.65;;
59728;SDS011;45588;51.598;5.618;2024-02-21T11:54:49;9.70;;;5.25;;
59728;SDS011;45588;51.598;5.618;2024-02-21T11:57:15;13.73;;;6.07;;
59728;SDS011;45588;51.598;5.618;2024-02-21T11:59:40;15.47;;;5.77;;
59728;SDS011;45588;51.598;5.618;2024-02-21T12:02:05;11.35;;;6.13;;
59728;SDS011;45588;51.598;5.618;2024-02-21T12:04:31;9.70;;;5.30;;
59728;SDS011;45588;51.598;5.618;2024-02-21T12:06:57;11.10;;;5.22;;
59728;SDS011;45588;51.598;5.618;2024-02-21T12:09:22;13.00;;;5.15;;
59728;SDS011;45588;51.598;5.618;2024-02-21T12:11:56;17.95;;;6.05;;
59728;SDS011;45588;51.598;5.618;2024-02-21T12:14:21;12.60;;;5.82;;
59728;SDS011;45588;51.598;5.618;2024-02-21T12:16:47;19.50;;;6.25;;
59728;SDS011;45588;51.598;5.618;2024-02-21T12:19:12;11.13;;;4.93;;
59728;SDS011;45588;51.598;5.618;2024-02-21T12:21:38;11.00;;;5.85;;
59728;SDS011;45588;51.598;5.618;2024-02-21T12:24:17;13.18;;;4.70;;
59728;SDS011;45588;51.598;5.618;2024-02-21T12:26:45;14.75;;;4.45;;
59728;SDS011;45588;51.598;5.618;2024-02-21T12:29:11;13.52;;;6.43;;
59728;SDS011;45588;51.598;5.618;2024-02-21T12:31:39;15.27;;;4.97;;
59728;SDS011;45588;51.598;5.618;2024-02-21T12:34:04;13.20;;;4.75;;
59728;SDS011;45588;51.598;5.618;2024-02-21T12:36:33;9.23;;;5.40;;
59728;SDS011;45588;51.598;5.618;2024-02-21T12:38:58;15.98;;;5.85;;
59728;SDS011;45588;51.598;5.618;2024-02-21T12:41:24;10.10;;;4.72;;
59728;SDS011;45588;51.598;5.618;2024-02-21T12:43:50;16.00;;;5.70;;
59728;SDS011;45588;51.598;5.618;2024-02-21T12:46:15;13.93;;;4.70;;
59728;SDS011;45588;51.598;5.618;2024-02-21T12:48:40;16.10;;;7.97;;
59728;SDS011;45588;51.598;5.618;2024-02-21T12:51:06;16.20;;;5.47;;
59728;SDS011;45588;51.598;5.618;2024-02-21T12:53:31;15.87;;;4.67;;
59728;SDS011;45588;51.598;5.618;2024-02-21T12:55:56;14.82;;;7.45;;
59728;SDS011;45588;51.598;5.618;2024-02-21T12:58:22;14.77;;;7.68;;
59728;SDS011;45588;51.598;5.618;2024-02-21T13:00:47;10.88;;;4.55;;
59728;SDS011;45588;51.598;5.618;2024-02-21T13:03:14;17.70;;;5.45;;
59728;SDS011;45588;51.598;5.618;2024-02-21T13:05:39;11.23;;;4.95;;
59728;SDS011;45588;51.598;5.618;2024-02-21T13:08:05;14.45;;;7.80;;
59728;SDS011;45588;51.598;5.618;2024-02-21T13:10:30;16.30;;;4.93;;
59728;SDS011;45588;51.598;5.618;2024-02-21T13:12:55;8.70;;;4.00;;
59728;SDS011;45588;51.598;5.618;2024-02-21T13:15:21;10.27;;;4.63;;
59728;SDS011;45588;51.598;5.618;2024-02-21T13:17:46;16.67;;;7.22;;
59728;SDS011;45588;51.598;5.618;2024-02-21T13:20:11;13.20;;;6.68;;
59728;SDS011;45588;51.598;5.618;2024-02-21T13:22:36;12.68;;;4.75;;
59728;SDS011;45588;51.598;5.618;2024-02-21T13:25:02;9.13;;;4.95;;
59728;SDS011;45588;51.598;5.618;2024-02-21T13:27:27;11.73;;;5.15;;
59728;SDS011;45588;51.598;5.618;2024-02-21T13:29:52;16.10;;;6.85;;
59728;SDS011;45588;51.598;5.618;2024-02-21T13:32:18;7.88;;;4.55;;
59728;SDS011;45588;51.598;5.618;2024-02-21T13:34:43;12.05;;;4.63;;
59728;SDS011;45588;51.598;5.618;2024-02-21T13:37:08;18.35;;;5.03;;
59728;SDS011;45588;51.598;5.618;2024-02-21T13:39:35;11.55;;;5.15;;
59728;SDS011;45588;51.598;5.618;2024-02-21T13:42:00;17.42;;;5.28;;
59728;SDS011;45588;51.598;5.618;2024-02-21T13:44:25;7.80;;;4.30;;
59728;SDS011;45588;51.598;5.618;2024-02-21T13:46:50;14.77;;;5.60;;
59728;SDS011;45588;51.598;5.618;2024-02-21T13:49:15;12.73;;;4.90;;
59728;SDS011;45588;51.598;5.618;2024-02-21T13:51:40;11.97;;;4.73;;
59728;SDS011;45588;51.598;5.618;2024-02-21T13:54:07;17.05;;;4.65;;
59728;SDS011;45588;51.598;5.618;2024-02-21T13:56:34;7.35;;;4.50;;
59728;SDS011;45588;51.598;5.618;2024-02-21T13:58:59;15.00;;;4.97;;
59728;SDS011;45588;51.598;5.618;2024-02-21T14:01:25;11.60;;;4.77;;
59728;SDS011;45588;51.598;5.618;2024-02-21T14:03:50;7.60;;;4.25;;
59728;SDS011;45588;51.598;5.618;2024-02-21T14:06:15;11.68;;;4.63;;
59728;SDS011;45588;51.598;5.618;2024-02-21T14:08:42;10.73;;;4.50;;
59728;SDS011;45588;51.598;5.618;2024-02-21T14:11:07;8.80;;;3.95;;
59728;SDS011;45588;51.598;5.618;2024-02-21T14:13:32;8.88;;;3.90;;
59728;SDS011;45588;51.598;5.618;2024-02-21T14:15:58;6.70;;;4.05;;
59728;SDS011;45588;51.598;5.618;2024-02-21T14:18:23;12.40;;;4.47;;
59728;SDS011;45588;51.598;5.618;2024-02-21T14:20:48;10.83;;;4.33;;
59728;SDS011;45588;51.598;5.618;2024-02-21T14:23:13;13.30;;;5.73;;